sensor_id;sensor_type;location;lat;lon;timestamp;pressure;altitude;pressure_sealevel;temperature;humidity
39301;BME280;25019;42.626;23.380;2023-03-22T00:01:58;94079.13;;;8.43;100.00
39301;BME280;25019;42.626;23.380;2023-03-22T00:04:23;94077.72;;;8.40;100.00
39301;BME280;25019;42.626;23.380;2023-03-22T00:06:50;94084.06;;;8.39;100.00
39301;BME280;25019;42.626;23.380;2023-03-22T00:09:16;94079.28;;;8.36;100.00
39301;BME280;25019;42.626;23.380;2023-03-22T00:11:42;94078.38;;;8.30;100.00
39301;BME280;25019;42.626;23.380;2023-03-22T00:14:08;94068.16;;;8.17;100.00
39301;BME280;25019;42.626;23.380;2023-03-22T00:16:34;94002.13;;;7.71;100.00
39301;BME280;25019;42.626;23.380;2023-03-22T00:18:59;94065.59;;;8.05;100.00
39301;BME280;25019;42.626;23.380;2023-03-22T00:21:25;94067.81;;;8.13;100.00
39301;BME280;25019;42.626;23.380;2023-03-22T00:23:51;94077.13;;;8.16;100.00
39301;BME280;25019;42.626;23.380;2023-03-22T00:26:16;94040.56;;;7.95;100.00
39301;BME280;25019;42.626;23.380;2023-03-22T00:28:42;94038.22;;;7.82;100.00
39301;BME280;25019;42.626;23.380;2023-03-22T00:31:08;94072.41;;;8.01;100.00
39301;BME280;25019;42.626;23.380;2023-03-22T00:33:35;94071.56;;;8.00;100.00
39301;BME280;25019;42.626;23.380;2023-03-22T00:36:04;94070.78;;;8.00;100.00
39301;BME280;25019;42.626;23.380;2023-03-22T00:38:30;94066.28;;;8.00;100.00
39301;BME280;25019;42.626;23.380;2023-03-22T00:41:08;94067.31;;;7.99;100.00
39301;BME280;25019;42.626;23.380;2023-03-22T00:43:35;94068.63;;;7.97;100.00
39301;BME280;25019;42.626;23.380;2023-03-22T00:46:02;94071.47;;;7.95;100.00
39301;BME280;25019;42.626;23.380;2023-03-22T00:48:28;94045.38;;;7.82;100.00
39301;BME280;25019;42.626;23.380;2023-03-22T00:50:54;94063.81;;;7.93;100.00
39301;BME280;25019;42.626;23.380;2023-03-22T00:53:19;93974.50;;;7.32;100.00
39301;BME280;25019;42.626;23.380;2023-03-22T00:55:46;94055.94;;;7.82;100.00
39301;BME280;25019;42.626;23.380;2023-03-22T00:58:11;94060.75;;;7.85;100.00
39301;BME280;25019;42.626;23.380;2023-03-22T01:00:37;94047.19;;;7.81;100.00
39301;BME280;25019;42.626;23.380;2023-03-22T01:03:03;94055.69;;;7.83;100.00
39301;BME280;25019;42.626;23.380;2023-03-22T01:05:33;94026.53;;;7.61;100.00
39301;BME280;25019;42.626;23.380;2023-03-22T01:08:03;94059.44;;;7.70;100.00
39301;BME280;25019;42.626;23.380;2023-03-22T01:10:34;94046.63;;;7.62;100.00
39301;BME280;25019;42.626;23.380;2023-03-22T01:13:00;94032.34;;;7.46;100.00
39301;BME280;25019;42.626;23.380;2023-03-22T01:15:26;94059.66;;;7.52;100.00
39301;BME280;25019;42.626;23.380;2023-03-22T01:17:52;94048.31;;;7.51;100.00
39301;BME280;25019;42.626;23.380;2023-03-22T01:20:18;94049.09;;;7.52;100.00
39301;BME280;25019;42.626;23.380;2023-03-22T01:22:44;94044.84;;;7.50;100.00
39301;BME280;25019;42.626;23.380;2023-03-22T01:25:09;94051.97;;;7.50;100.00
39301;BME280;25019;42.626;23.380;2023-03-22T01:27:39;93905.84;;;6.57;100.00
39301;BME280;25019;42.626;23.380;2023-03-22T01:30:09;94038.91;;;7.43;100.00
39301;BME280;25019;42.626;23.380;2023-03-22T01:32:36;94045.00;;;7.44;100.00
39301;BME280;25019;42.626;23.380;2023-03-22T01:35:03;94037.75;;;7.39;100.00
39301;BME280;25019;42.626;23.380;2023-03-22T01:37:29;94032.97;;;7.36;100.00
39301;BME280;25019;42.626;23.380;2023-03-22T01:39:57;94036.41;;;7.37;100.00
39301;BME280;25019;42.626;23.380;2023-03-22T01:42:23;94035.38;;;7.38;100.00
39301;BME280;25019;42.626;23.380;2023-03-22T01:45:55;94034.59;;;7.37;100.00
39301;BME280;25019;42.626;23.380;2023-03-22T01:48:02;94040.25;;;7.29;100.00
39301;BME280;25019;42.626;23.380;2023-03-22T01:50:34;94037.81;;;7.27;100.00
39301;BME280;25019;42.626;23.380;2023-03-22T01:53:02;94035.44;;;7.26;100.00
39301;BME280;25019;42.626;23.380;2023-03-22T01:55:32;94033.56;;;7.26;100.00
39301;BME280;25019;42.626;23.380;2023-03-22T01:58:24;94031.44;;;7.23;100.00
39301;BME280;25019;42.626;23.380;2023-03-22T02:00:57;93921.25;;;6.49;100.00
39301;BME280;25019;42.626;23.380;2023-03-22T02:04:07;93968.78;;;6.78;100.00
39301;BME280;25019;42.626;23.380;2023-03-22T02:06:34;93970.63;;;6.77;100.00
39301;BME280;25019;42.626;23.380;2023-03-22T02:09:12;94037.06;;;7.15;100.00
39301;BME280;25019;42.626;23.380;2023-03-22T02:11:42;94033.16;;;7.17;100.00
39301;BME280;25019;42.626;23.380;2023-03-22T02:26:17;94039.00;;;7.19;100.00
39301;BME280;25019;42.626;23.380;2023-03-22T02:29:05;94048.56;;;7.09;100.00
39301;BME280;25019;42.626;23.380;2023-03-22T02:38:21;94047.91;;;7.01;100.00
39301;BME280;25019;42.626;23.380;2023-03-22T02:40:37;94054.69;;;6.97;100.00
39301;BME280;25019;42.626;23.380;2023-03-22T02:43:33;94047.94;;;6.89;100.00
39301;BME280;25019;42.626;23.380;2023-03-22T02:46:16;94054.34;;;6.94;100.00
39301;BME280;25019;42.626;23.380;2023-03-22T02:51:45;94059.78;;;6.87;100.00
39301;BME280;25019;42.626;23.380;2023-03-22T02:54:23;94053.47;;;6.88;100.00
39301;BME280;25019;42.626;23.380;2023-03-22T02:57:06;94054.81;;;6.90;100.00
39301;BME280;25019;42.626;23.380;2023-03-22T02:59:36;94059.28;;;7.02;100.00
39301;BME280;25019;42.626;23.380;2023-03-22T03:02:04;94059.59;;;7.05;100.00
39301;BME280;25019;42.626;23.380;2023-03-22T03:04:37;94057.16;;;7.16;100.00
39301;BME280;25019;42.626;23.380;2023-03-22T03:07:07;94007.75;;;6.87;100.00
39301;BME280;25019;42.626;23.380;2023-03-22T03:09:36;94057.13;;;7.28;100.00
39301;BME280;25019;42.626;23.380;2023-03-22T03:12:13;94042.00;;;7.23;100.00
39301;BME280;25019;42.626;23.380;2023-03-22T03:14:39;94065.94;;;7.33;100.00
39301;BME280;25019;42.626;23.380;2023-03-22T03:19:44;94065.06;;;7.28;100.00
39301;BME280;25019;42.626;23.380;2023-03-22T03:25:37;94061.13;;;7.30;100.00
39301;BME280;25019;42.626;23.380;2023-03-22T03:28:13;94058.00;;;7.33;100.00
39301;BME280;25019;42.626;23.380;2023-03-22T03:30:51;94058.25;;;7.32;100.00
39301;BME280;25019;42.626;23.380;2023-03-22T03:33:19;94062.97;;;7.30;100.00
39301;BME280;25019;42.626;23.380;2023-03-22T03:35:55;94052.22;;;7.19;100.00
39301;BME280;25019;42.626;23.380;2023-03-22T03:38:27;94057.97;;;7.16;100.00
39301;BME280;25019;42.626;23.380;2023-03-22T03:41:01;94016.06;;;6.79;100.00
39301;BME280;25019;42.626;23.380;2023-03-22T03:43:28;94057.53;;;7.08;100.00
39301;BME280;25019;42.626;23.380;2023-03-22T03:45:54;94052.38;;;7.01;100.00
39301;BME280;25019;42.626;23.380;2023-03-22T03:48:40;94002.41;;;6.70;100.00
39301;BME280;25019;42.626;23.380;2023-03-22T03:51:09;94070.59;;;7.14;100.00
39301;BME280;25019;42.626;23.380;2023-03-22T03:53:35;94059.59;;;7.05;100.00
39301;BME280;25019;42.626;23.380;2023-03-22T03:56:00;94009.88;;;6.73;100.00
39301;BME280;25019;42.626;23.380;2023-03-22T03:58:33;94066.16;;;7.03;100.00
39301;BME280;25019;42.626;23.380;2023-03-22T04:00:58;94077.63;;;7.09;100.00
39301;BME280;25019;42.626;23.380;2023-03-22T04:03:37;94069.03;;;7.01;100.00
39301;BME280;25019;42.626;23.380;2023-03-22T04:06:30;94056.22;;;6.93;100.00
39301;BME280;25019;42.626;23.380;2023-03-22T04:09:02;94056.22;;;6.93;100.00
39301;BME280;25019;42.626;23.380;2023-03-22T04:11:31;94074.41;;;7.07;100.00
39301;BME280;25019;42.626;23.380;2023-03-22T04:14:00;94027.56;;;6.73;100.00
39301;BME280;25019;42.626;23.380;2023-03-22T04:16:25;94081.44;;;7.01;100.00
39301;BME280;25019;42.626;23.380;2023-03-22T04:18:51;94080.75;;;6.94;100.00
39301;BME280;25019;42.626;23.380;2023-03-22T04:21:18;94088.47;;;6.95;100.00
39301;BME280;25019;42.626;23.380;2023-03-22T04:23:51;94012.81;;;6.48;100.00
39301;BME280;25019;42.626;23.380;2023-03-22T04:26:16;94090.84;;;6.97;100.00
39301;BME280;25019;42.626;23.380;2023-03-22T04:29:03;94083.50;;;6.99;100.00
39301;BME280;25019;42.626;23.380;2023-03-22T04:31:32;94094.97;;;7.04;100.00
39301;BME280;25019;42.626;23.380;2023-03-22T04:34:05;94092.31;;;7.04;100.00
39301;BME280;25019;42.626;23.380;2023-03-22T04:36:54;94081.78;;;6.93;100.00
39301;BME280;25019;42.626;23.380;2023-03-22T04:39:29;94097.38;;;7.06;100.00
39301;BME280;25019;42.626;23.380;2023-03-22T04:42:18;94097.47;;;7.11;100.00
39301;BME280;25019;42.626;23.380;2023-03-22T04:44:45;94100.22;;;7.16;100.00
39301;BME280;25019;42.626;23.380;2023-03-22T04:47:11;94088.19;;;7.09;100.00
39301;BME280;25019;42.626;23.380;2023-03-22T04:49:37;94073.72;;;6.99;100.00
39301;BME280;25019;42.626;23.380;2023-03-22T04:52:02;94097.56;;;7.16;100.00
39301;BME280;25019;42.626;23.380;2023-03-22T04:54:33;94014.38;;;6.61;100.00
39301;BME280;25019;42.626;23.380;2023-03-22T04:57:00;94069.59;;;7.03;100.00
39301;BME280;25019;42.626;23.380;2023-03-22T04:59:28;94038.78;;;6.80;100.00
39301;BME280;25019;42.626;23.380;2023-03-22T05:01:53;94107.78;;;7.25;100.00
39301;BME280;25019;42.626;23.380;2023-03-22T05:04:23;94055.84;;;6.89;100.00
39301;BME280;25019;42.626;23.380;2023-03-22T05:06:57;94117.88;;;7.28;100.00
39301;BME280;25019;42.626;23.380;2023-03-22T05:09:29;94110.78;;;7.16;100.00
39301;BME280;25019;42.626;23.380;2023-03-22T05:11:56;94126.28;;;7.25;100.00
39301;BME280;25019;42.626;23.380;2023-03-22T05:14:29;94117.00;;;7.10;100.00
39301;BME280;25019;42.626;23.380;2023-03-22T05:16:54;94072.63;;;6.71;100.00
39301;BME280;25019;42.626;23.380;2023-03-22T05:19:23;94063.94;;;6.71;100.00
39301;BME280;25019;42.626;23.380;2023-03-22T05:21:50;94099.56;;;6.97;100.00
39301;BME280;25019;42.626;23.380;2023-03-22T05:24:24;94086.31;;;6.80;100.00
39301;BME280;25019;42.626;23.380;2023-03-22T05:26:49;94134.34;;;7.18;100.00
39301;BME280;25019;42.626;23.380;2023-03-22T05:29:21;94133.88;;;7.21;100.00
39301;BME280;25019;42.626;23.380;2023-03-22T05:31:59;94135.81;;;7.26;100.00
39301;BME280;25019;42.626;23.380;2023-03-22T05:34:26;94122.06;;;7.12;100.00
39301;BME280;25019;42.626;23.380;2023-03-22T05:37:01;94059.66;;;6.82;100.00
39301;BME280;25019;42.626;23.380;2023-03-22T05:39:55;94140.72;;;7.34;100.00
39301;BME280;25019;42.626;23.380;2023-03-22T05:42:29;94129.69;;;7.25;100.00
39301;BME280;25019;42.626;23.380;2023-03-22T05:44:55;94143.84;;;7.31;100.00
39301;BME280;25019;42.626;23.380;2023-03-22T05:47:21;94126.13;;;7.31;100.00
39301;BME280;25019;42.626;23.380;2023-03-22T05:49:53;94140.13;;;7.44;100.00
39301;BME280;25019;42.626;23.380;2023-03-22T05:52:21;94141.59;;;7.52;100.00
39301;BME280;25019;42.626;23.380;2023-03-22T05:55:09;94151.13;;;7.53;100.00
39301;BME280;25019;42.626;23.380;2023-03-22T05:57:35;94150.41;;;7.57;100.00
39301;BME280;25019;42.626;23.380;2023-03-22T06:00:05;94154.91;;;7.57;100.00
39301;BME280;25019;42.626;23.380;2023-03-22T06:02:39;94156.34;;;7.64;100.00
39301;BME280;25019;42.626;23.380;2023-03-22T06:05:06;94158.44;;;7.62;100.00
39301;BME280;25019;42.626;23.380;2023-03-22T06:07:32;94164.59;;;7.68;100.00
39301;BME280;25019;42.626;23.380;2023-03-22T06:10:11;94163.69;;;7.74;100.00
39301;BME280;25019;42.626;23.380;2023-03-22T06:12:38;94164.50;;;7.75;100.00
39301;BME280;25019;42.626;23.380;2023-03-22T06:15:10;94158.81;;;7.83;100.00
39301;BME280;25019;42.626;23.380;2023-03-22T06:17:55;94171.66;;;7.91;100.00
39301;BME280;25019;42.626;23.380;2023-03-22T06:20:24;94164.28;;;7.93;100.00
39301;BME280;25019;42.626;23.380;2023-03-22T06:22:57;94172.88;;;8.01;100.00
39301;BME280;25019;42.626;23.380;2023-03-22T06:25:23;94116.00;;;7.69;100.00
39301;BME280;25019;42.626;23.380;2023-03-22T06:27:49;94125.41;;;7.77;100.00
39301;BME280;25019;42.626;23.380;2023-03-22T06:30:15;94118.50;;;7.76;100.00
39301;BME280;25019;42.626;23.380;2023-03-22T06:32:59;94129.72;;;7.83;100.00
39301;BME280;25019;42.626;23.380;2023-03-22T06:35:33;94169.38;;;8.12;100.00
39301;BME280;25019;42.626;23.380;2023-03-22T06:38:00;94177.50;;;8.22;100.00
39301;BME280;25019;42.626;23.380;2023-03-22T06:40:26;94173.41;;;8.32;100.00
39301;BME280;25019;42.626;23.380;2023-03-22T06:42:52;94177.41;;;8.34;100.00
39301;BME280;25019;42.626;23.380;2023-03-22T06:45:20;94176.00;;;8.44;100.00
39301;BME280;25019;42.626;23.380;2023-03-22T06:47:47;94155.78;;;8.37;100.00
39301;BME280;25019;42.626;23.380;2023-03-22T06:50:34;94163.19;;;8.52;100.00
39301;BME280;25019;42.626;23.380;2023-03-22T06:53:08;94177.22;;;8.70;100.00
39301;BME280;25019;42.626;23.380;2023-03-22T06:55:34;94120.41;;;8.27;100.00
39301;BME280;25019;42.626;23.380;2023-03-22T06:58:08;94090.72;;;7.90;100.00
39301;BME280;25019;42.626;23.380;2023-03-22T07:00:35;94190.56;;;8.46;100.00
39301;BME280;25019;42.626;23.380;2023-03-22T07:03:01;94161.03;;;8.20;100.00
39301;BME280;25019;42.626;23.380;2023-03-22T07:06:03;94162.97;;;8.08;100.00
39301;BME280;25019;42.626;23.380;2023-03-22T07:08:31;94165.75;;;8.01;100.00
39301;BME280;25019;42.626;23.380;2023-03-22T07:10:56;94186.72;;;7.91;100.00
39301;BME280;25019;42.626;23.380;2023-03-22T07:13:22;94156.69;;;7.68;100.00
39301;BME280;25019;42.626;23.380;2023-03-22T07:15:56;94207.97;;;7.96;100.00
39301;BME280;25019;42.626;23.380;2023-03-22T07:18:48;94127.81;;;7.49;100.00
39301;BME280;25019;42.626;23.380;2023-03-22T07:21:14;94192.66;;;7.98;100.00
39301;BME280;25019;42.626;23.380;2023-03-22T07:23:41;94219.03;;;8.22;100.00
39301;BME280;25019;42.626;23.380;2023-03-22T07:26:10;94180.09;;;8.05;100.00
39301;BME280;25019;42.626;23.380;2023-03-22T07:28:40;94194.66;;;8.20;100.00
39301;BME280;25019;42.626;23.380;2023-03-22T07:31:08;94173.06;;;8.11;100.00
39301;BME280;25019;42.626;23.380;2023-03-22T07:34:05;94209.06;;;8.29;100.00
39301;BME280;25019;42.626;23.380;2023-03-22T07:36:50;94135.25;;;7.82;100.00
39301;BME280;25019;42.626;23.380;2023-03-22T07:39:16;94219.94;;;8.45;100.00
39301;BME280;25019;42.626;23.380;2023-03-22T07:41:45;94240.81;;;8.58;100.00
39301;BME280;25019;42.626;23.380;2023-03-22T07:44:40;94241.22;;;8.67;100.00
39301;BME280;25019;42.626;23.380;2023-03-22T07:47:18;94232.72;;;8.65;100.00
39301;BME280;25019;42.626;23.380;2023-03-22T07:49:49;94233.53;;;8.65;100.00
39301;BME280;25019;42.626;23.380;2023-03-22T07:52:23;94241.00;;;8.68;100.00
39301;BME280;25019;42.626;23.380;2023-03-22T07:54:49;94230.72;;;8.55;100.00
39301;BME280;25019;42.626;23.380;2023-03-22T07:57:14;94209.66;;;8.31;100.00
39301;BME280;25019;42.626;23.380;2023-03-22T07:59:48;94219.81;;;8.22;100.00
39301;BME280;25019;42.626;23.380;2023-03-22T08:02:15;94236.66;;;8.33;100.00
39301;BME280;25019;42.626;23.380;2023-03-22T08:04:45;94237.91;;;8.43;100.00
39301;BME280;25019;42.626;23.380;2023-03-22T08:07:29;94206.84;;;8.21;100.00
39301;BME280;25019;42.626;23.380;2023-03-22T08:09:56;94219.09;;;8.27;100.00
39301;BME280;25019;42.626;23.380;2023-03-22T08:12:22;94193.72;;;8.14;100.00
39301;BME280;25019;42.626;23.380;2023-03-22T08:14:57;94230.19;;;8.41;100.00
39301;BME280;25019;42.626;23.380;2023-03-22T08:17:26;94203.63;;;8.19;100.00
39301;BME280;25019;42.626;23.380;2023-03-22T08:19:54;94211.88;;;8.22;100.00
39301;BME280;25019;42.626;23.380;2023-03-22T08:22:25;94158.13;;;7.88;100.00
39301;BME280;25019;42.626;23.380;2023-03-22T08:25:12;94191.25;;;8.07;100.00
39301;BME280;25019;42.626;23.380;2023-03-22T08:27:39;94247.75;;;8.47;100.00
39301;BME280;25019;42.626;23.380;2023-03-22T08:30:05;94245.81;;;8.54;100.00
39301;BME280;25019;42.626;23.380;2023-03-22T08:32:32;94243.94;;;8.55;100.00
39301;BME280;25019;42.626;23.380;2023-03-22T08:34:58;94212.06;;;8.33;100.00
39301;BME280;25019;42.626;23.380;2023-03-22T08:37:24;94232.09;;;8.58;100.00
39301;BME280;25019;42.626;23.380;2023-03-22T08:39:50;94189.28;;;8.32;100.00
39301;BME280;25019;42.626;23.380;2023-03-22T08:42:22;94251.44;;;8.75;100.00
39301;BME280;25019;42.626;23.380;2023-03-22T08:44:48;94242.34;;;8.71;100.00
39301;BME280;25019;42.626;23.380;2023-03-22T08:47:17;94220.22;;;8.60;100.00
39301;BME280;25019;42.626;23.380;2023-03-22T08:49:43;94223.03;;;8.71;100.00
39301;BME280;25019;42.626;23.380;2023-03-22T08:52:22;94258.25;;;8.88;100.00
39301;BME280;25019;42.626;23.380;2023-03-22T08:54:57;94240.84;;;8.75;100.00
39301;BME280;25019;42.626;23.380;2023-03-22T08:57:45;94261.47;;;8.90;100.00
39301;BME280;25019;42.626;23.380;2023-03-22T09:00:33;94250.31;;;8.88;100.00
39301;BME280;25019;42.626;23.380;2023-03-22T09:03:11;94247.97;;;9.09;100.00
39301;BME280;25019;42.626;23.380;2023-03-22T09:05:38;94242.63;;;9.04;100.00
39301;BME280;25019;42.626;23.380;2023-03-22T09:08:05;94206.97;;;8.77;100.00
39301;BME280;25019;42.626;23.380;2023-03-22T09:10:37;94199.38;;;8.64;100.00
39301;BME280;25019;42.626;23.380;2023-03-22T09:13:04;94267.88;;;9.11;100.00
39301;BME280;25019;42.626;23.380;2023-03-22T09:15:31;94273.34;;;9.05;100.00
39301;BME280;25019;42.626;23.380;2023-03-22T09:18:11;94196.88;;;8.57;100.00
39301;BME280;25019;42.626;23.380;2023-03-22T09:20:38;94243.22;;;8.94;100.00
39301;BME280;25019;42.626;23.380;2023-03-22T09:23:05;94265.38;;;9.22;100.00
39301;BME280;25019;42.626;23.380;2023-03-22T09:25:31;94183.78;;;8.67;100.00
39301;BME280;25019;42.626;23.380;2023-03-22T09:27:57;94203.84;;;8.80;100.00
39301;BME280;25019;42.626;23.380;2023-03-22T09:30:23;94238.28;;;8.97;100.00
39301;BME280;25019;42.626;23.380;2023-03-22T09:32:49;94249.53;;;9.05;100.00
39301;BME280;25019;42.626;23.380;2023-03-22T09:35:15;94231.78;;;8.88;100.00
39301;BME280;25019;42.626;23.380;2023-03-22T09:38:10;94183.47;;;8.47;100.00
39301;BME280;25019;42.626;23.380;2023-03-22T09:40:47;94268.69;;;9.12;100.00
39301;BME280;25019;42.626;23.380;2023-03-22T09:43:16;94216.53;;;8.78;100.00
39301;BME280;25019;42.626;23.380;2023-03-22T09:45:45;94264.84;;;9.20;100.00
39301;BME280;25019;42.626;23.380;2023-03-22T09:48:28;94227.03;;;8.90;100.00
39301;BME280;25019;42.626;23.380;2023-03-22T09:50:55;94276.06;;;9.10;100.00
39301;BME280;25019;42.626;23.380;2023-03-22T09:53:24;94275.09;;;9.16;100.00
39301;BME280;25019;42.626;23.380;2023-03-22T09:58:51;94258.16;;;9.17;100.00
39301;BME280;25019;42.626;23.380;2023-03-22T10:01:32;94266.03;;;9.12;100.00
39301;BME280;25019;42.626;23.380;2023-03-22T10:06:36;94265.25;;;8.94;100.00
39301;BME280;25019;42.626;23.380;2023-03-22T10:14:50;94286.25;;;9.35;100.00
39301;BME280;25019;42.626;23.380;2023-03-22T10:17:22;94239.13;;;9.20;100.00
39301;BME280;25019;42.626;23.380;2023-03-22T10:19:57;94294.25;;;9.57;100.00
39301;BME280;25019;42.626;23.380;2023-03-22T10:22:29;94289.53;;;9.59;100.00
39301;BME280;25019;42.626;23.380;2023-03-22T10:24:56;94281.50;;;9.54;100.00
39301;BME280;25019;42.626;23.380;2023-03-22T10:27:25;94273.56;;;9.37;100.00
39301;BME280;25019;42.626;23.380;2023-03-22T10:29:59;94272.50;;;9.38;100.00
39301;BME280;25019;42.626;23.380;2023-03-22T10:32:54;94288.97;;;9.40;100.00
39301;BME280;25019;42.626;23.380;2023-03-22T10:35:22;94201.38;;;8.74;100.00
39301;BME280;25019;42.626;23.380;2023-03-22T10:37:48;94249.91;;;9.13;100.00
39301;BME280;25019;42.626;23.380;2023-03-22T10:40:19;94202.97;;;8.92;100.00
39301;BME280;25019;42.626;23.380;2023-03-22T10:42:52;94260.53;;;9.36;100.00
39301;BME280;25019;42.626;23.380;2023-03-22T10:45:19;94251.06;;;9.40;100.00
39301;BME280;25019;42.626;23.380;2023-03-22T10:48:27;94283.78;;;9.68;100.00
39301;BME280;25019;42.626;23.380;2023-03-22T10:50:55;94216.97;;;9.26;100.00
39301;BME280;25019;42.626;23.380;2023-03-22T10:53:32;94253.19;;;9.60;100.00
39301;BME280;25019;42.626;23.380;2023-03-22T10:56:01;94236.16;;;9.56;100.00
39301;BME280;25019;42.626;23.380;2023-03-22T10:58:29;94238.09;;;9.61;100.00
39301;BME280;25019;42.626;23.380;2023-03-22T11:00:57;94251.34;;;9.61;100.00
39301;BME280;25019;42.626;23.380;2023-03-22T11:03:36;94273.53;;;9.77;100.00
39301;BME280;25019;42.626;23.380;2023-03-22T11:06:21;94263.94;;;9.70;100.00
39301;BME280;25019;42.626;23.380;2023-03-22T11:08:50;94238.59;;;9.57;100.00
39301;BME280;25019;42.626;23.380;2023-03-22T11:16:55;94280.22;;;10.01;100.00
39301;BME280;25019;42.626;23.380;2023-03-22T11:21:50;94222.97;;;9.83;100.00
39301;BME280;25019;42.626;23.380;2023-03-22T11:24:17;94242.81;;;10.03;100.00
39301;BME280;25019;42.626;23.380;2023-03-22T11:27:22;94263.00;;;10.26;100.00
39301;BME280;25019;42.626;23.380;2023-03-22T11:29:49;94276.31;;;10.31;100.00
39301;BME280;25019;42.626;23.380;2023-03-22T11:35:23;94271.69;;;10.22;100.00
39301;BME280;25019;42.626;23.380;2023-03-22T11:37:54;94206.44;;;9.76;100.00
39301;BME280;25019;42.626;23.380;2023-03-22T11:40:28;94238.63;;;9.85;100.00
39301;BME280;25019;42.626;23.380;2023-03-22T11:43:26;94263.19;;;9.97;100.00
39301;BME280;25019;42.626;23.380;2023-03-22T11:45:55;94267.19;;;10.00;100.00
39301;BME280;25019;42.626;23.380;2023-03-22T11:48:28;94225.13;;;9.64;100.00
39301;BME280;25019;42.626;23.380;2023-03-22T11:51:02;94252.84;;;9.73;100.00
39301;BME280;25019;42.626;23.380;2023-03-22T11:53:31;94263.44;;;9.73;100.00
39301;BME280;25019;42.626;23.380;2023-03-22T11:55:57;94238.69;;;9.46;100.00
39301;BME280;25019;42.626;23.380;2023-03-22T11:58:38;94254.91;;;9.49;100.00
39301;BME280;25019;42.626;23.380;2023-03-22T12:01:12;94247.69;;;9.44;100.00
39301;BME280;25019;42.626;23.380;2023-03-22T12:03:42;94271.50;;;9.62;100.00
39301;BME280;25019;42.626;23.380;2023-03-22T12:06:17;94279.63;;;9.55;100.00
39301;BME280;25019;42.626;23.380;2023-03-22T12:08:48;94277.78;;;9.55;100.00
39301;BME280;25019;42.626;23.380;2023-03-22T12:11:33;94277.59;;;9.62;100.00
39301;BME280;25019;42.626;23.380;2023-03-22T12:14:01;94269.81;;;9.72;100.00
39301;BME280;25019;42.626;23.380;2023-03-22T12:17:12;94253.63;;;9.74;100.00
39301;BME280;25019;42.626;23.380;2023-03-22T12:22:27;94246.94;;;10.16;100.00
39301;BME280;25019;42.626;23.380;2023-03-22T12:24:55;94256.66;;;10.32;100.00
39301;BME280;25019;42.626;23.380;2023-03-22T12:27:28;94234.69;;;10.37;100.00
39301;BME280;25019;42.626;23.380;2023-03-22T12:30:04;94245.66;;;10.73;100.00
39301;BME280;25019;42.626;23.380;2023-03-22T12:32:50;94262.41;;;11.06;100.00
39301;BME280;25019;42.626;23.380;2023-03-22T12:35:20;94231.50;;;10.95;100.00
39301;BME280;25019;42.626;23.380;2023-03-22T12:37:53;94268.44;;;11.34;100.00
39301;BME280;25019;42.626;23.380;2023-03-22T12:40:36;94231.47;;;11.33;100.00
39301;BME280;25019;42.626;23.380;2023-03-22T12:43:12;94246.59;;;11.70;100.00
39301;BME280;25019;42.626;23.380;2023-03-22T12:45:44;94243.19;;;11.90;100.00
39301;BME280;25019;42.626;23.380;2023-03-22T12:48:17;94241.91;;;11.98;100.00
39301;BME280;25019;42.626;23.380;2023-03-22T12:50:59;94197.66;;;11.81;100.00
39301;BME280;25019;42.626;23.380;2023-03-22T12:53:30;94255.56;;;12.17;100.00
39301;BME280;25019;42.626;23.380;2023-03-22T12:55:58;94251.56;;;12.14;100.00
39301;BME280;25019;42.626;23.380;2023-03-22T12:58:25;94248.53;;;11.95;100.00
39301;BME280;25019;42.626;23.380;2023-03-22T13:03:25;94186.47;;;11.69;100.00
39301;BME280;25019;42.626;23.380;2023-03-22T13:06:04;94132.06;;;11.34;100.00
39301;BME280;25019;42.626;23.380;2023-03-22T13:09:00;94248.13;;;12.24;100.00
39301;BME280;25019;42.626;23.380;2023-03-22T13:11:27;94223.59;;;12.02;100.00
39301;BME280;25019;42.626;23.380;2023-03-22T13:13:53;94185.09;;;11.66;100.00
39301;BME280;25019;42.626;23.380;2023-03-22T13:16:20;94181.84;;;11.49;100.00
39301;BME280;25019;42.626;23.380;2023-03-22T13:23:56;94248.41;;;11.64;100.00
39301;BME280;25019;42.626;23.380;2023-03-22T13:26:30;94215.91;;;11.52;100.00
39301;BME280;25019;42.626;23.380;2023-03-22T13:28:59;94230.75;;;11.43;100.00
39301;BME280;25019;42.626;23.380;2023-03-22T13:31:41;94199.09;;;10.98;100.00
39301;BME280;25019;42.626;23.380;2023-03-22T13:34:18;94215.09;;;10.71;100.00
39301;BME280;25019;42.626;23.380;2023-03-22T13:36:53;94238.94;;;10.66;100.00
39301;BME280;25019;42.626;23.380;2023-03-22T13:39:22;94233.06;;;10.58;100.00
39301;BME280;25019;42.626;23.380;2023-03-22T13:42:02;94164.84;;;10.04;100.00
39301;BME280;25019;42.626;23.380;2023-03-22T13:44:36;94229.47;;;10.42;100.00
39301;BME280;25019;42.626;23.380;2023-03-22T13:47:06;94192.56;;;10.18;100.00
39301;BME280;25019;42.626;23.380;2023-03-22T13:49:57;94236.78;;;10.35;100.00
39301;BME280;25019;42.626;23.380;2023-03-22T13:52:28;94259.31;;;10.32;100.00
39301;BME280;25019;42.626;23.380;2023-03-22T13:54:55;94249.72;;;10.26;100.00
39301;BME280;25019;42.626;23.380;2023-03-22T14:03:02;94253.88;;;10.39;100.00
39301;BME280;25019;42.626;23.380;2023-03-22T14:05:34;94238.28;;;10.48;100.00
39301;BME280;25019;42.626;23.380;2023-03-22T14:08:00;94153.44;;;10.03;100.00
39301;BME280;25019;42.626;23.380;2023-03-22T14:10:42;94185.19;;;10.26;100.00
39301;BME280;25019;42.626;23.380;2023-03-22T14:14:19;94195.31;;;10.29;100.00
39301;BME280;25019;42.626;23.380;2023-03-22T14:18:46;94120.50;;;10.04;100.00
39301;BME280;25019;42.626;23.380;2023-03-22T14:21:17;94229.44;;;10.70;100.00
39301;BME280;25019;42.626;23.380;2023-03-22T14:23:53;94211.94;;;10.74;100.00